createdAt,value
2018-12-03T00:00:15.752Z,11.20
2018-12-03T00:02:43.429Z,11.63
2018-12-03T00:05:11.077Z,11.45
2018-12-03T00:07:38.721Z,11.70
2018-12-03T00:10:07.936Z,12.23
2018-12-03T00:12:35.583Z,11.70
2018-12-03T00:15:03.850Z,12.55
2018-12-03T00:17:31.514Z,11.00
2018-12-03T00:19:59.154Z,12.00
2018-12-03T00:22:26.835Z,10.98
2018-12-03T00:24:54.801Z,10.70
2018-12-03T00:27:22.459Z,10.67
2018-12-03T00:29:50.143Z,11.10
2018-12-03T00:32:17.850Z,12.80
2018-12-03T00:34:45.489Z,13.50
2018-12-03T00:37:13.112Z,11.90
2018-12-03T00:39:40.822Z,12.50
2018-12-03T00:42:08.471Z,14.30
2018-12-03T00:44:36.141Z,14.70
2018-12-03T00:47:04.004Z,14.10
2018-12-03T00:49:31.666Z,14.73
2018-12-03T00:51:59.282Z,15.00
2018-12-03T00:54:26.933Z,16.85
2018-12-03T00:56:54.582Z,15.97
2018-12-03T00:59:22.225Z,14.27
2018-12-03T01:01:49.910Z,13.90
2018-12-03T01:04:17.585Z,15.05
2018-12-03T01:06:45.261Z,14.75
2018-12-03T01:09:12.956Z,15.20
2018-12-03T01:11:40.614Z,14.43
2018-12-03T01:14:08.257Z,15.97
2018-12-03T01:16:35.937Z,15.18
2018-12-03T01:19:03.805Z,16.23
2018-12-03T01:21:31.466Z,16.10
2018-12-03T01:23:59.129Z,15.43
2018-12-03T01:26:26.753Z,14.78
2018-12-03T01:28:54.454Z,15.07
2018-12-03T01:31:22.095Z,15.27
2018-12-03T01:33:49.791Z,15.93
2018-12-03T01:36:17.488Z,17.35
2018-12-03T01:38:45.129Z,14.85
2018-12-03T01:41:12.861Z,16.07
2018-12-03T01:43:40.529Z,14.33
2018-12-03T01:46:08.177Z,14.73
2018-12-03T01:48:35.913Z,13.93
2018-12-03T01:51:03.988Z,15.80
2018-12-03T01:53:31.666Z,16.77
2018-12-03T01:55:59.287Z,16.70
2018-12-03T01:58:26.938Z,16.35
2018-12-03T02:00:55.626Z,14.80
2018-12-03T02:03:23.418Z,15.73
2018-12-03T02:05:51.069Z,15.50
2018-12-03T02:08:18.730Z,16.62
2018-12-03T02:10:46.430Z,15.93
2018-12-03T02:13:14.112Z,13.93
2018-12-03T02:15:41.807Z,15.50
2018-12-03T02:18:09.520Z,15.73
2018-12-03T02:20:37.174Z,15.03
2018-12-03T02:23:04.828Z,15.95
2018-12-03T02:25:32.459Z,13.87
2018-12-03T02:28:00.128Z,14.80
2018-12-03T02:30:27.858Z,13.50
2018-12-03T02:32:55.449Z,14.68
2018-12-03T02:35:23.122Z,14.97
2018-12-03T02:37:50.745Z,13.72
2018-12-03T02:40:18.394Z,13.90
2018-12-03T02:42:46.169Z,14.40
2018-12-03T02:45:14.365Z,15.33
2018-12-03T02:47:42.021Z,16.25
2018-12-03T02:50:14.025Z,13.87
2018-12-03T02:52:41.717Z,13.80
2018-12-03T02:55:10.759Z,13.90
2018-12-03T02:57:38.543Z,14.00
2018-12-03T03:00:11.329Z,14.07
2018-12-03T03:02:38.998Z,14.50
2018-12-03T03:05:09.246Z,13.58
2018-12-03T03:07:36.981Z,14.10
2018-12-03T03:10:11.132Z,13.80
2018-12-03T03:12:39.045Z,14.33
2018-12-03T03:15:10.902Z,14.20
2018-12-03T03:17:38.868Z,13.93
2018-12-03T03:20:08.899Z,14.90
2018-12-03T03:22:36.619Z,16.57
2018-12-03T03:25:04.670Z,14.80
2018-12-03T03:27:32.329Z,15.03
2018-12-03T03:29:59.957Z,15.93
2018-12-03T03:32:27.645Z,16.70
2018-12-03T03:34:55.457Z,15.10
2018-12-03T03:37:23.086Z,13.90
2018-12-03T03:39:50.765Z,14.43
2018-12-03T03:42:18.511Z,15.80
2018-12-03T03:44:46.275Z,15.10
2018-12-03T03:47:13.978Z,15.08
2018-12-03T03:49:41.555Z,15.60
2018-12-03T03:52:16.096Z,15.00
2018-12-03T03:54:43.728Z,14.80
2018-12-03T03:57:11.365Z,16.07
2018-12-03T03:59:39.038Z,14.60
2018-12-03T04:02:06.742Z,16.87
2018-12-03T04:04:34.437Z,15.47
2018-12-03T04:07:02.149Z,15.03
2018-12-03T04:09:29.826Z,14.80
2018-12-03T04:11:57.574Z,15.25
2018-12-03T04:14:25.327Z,15.95
2018-12-03T04:16:52.950Z,15.77
2018-12-03T04:19:20.622Z,14.23
2018-12-03T04:21:48.386Z,15.63
2018-12-03T04:24:16.035Z,16.70
2018-12-03T04:26:43.736Z,16.27
2018-12-03T04:29:11.406Z,15.57
2018-12-03T04:31:39.122Z,15.60
2018-12-03T04:34:07.106Z,15.72
2018-12-03T04:36:34.873Z,15.25
2018-12-03T04:39:05.615Z,13.38
2018-12-03T04:41:33.346Z,13.97
2018-12-03T04:44:01.076Z,12.70
2018-12-03T04:46:28.810Z,11.70
2018-12-03T04:48:56.497Z,12.35
2018-12-03T04:51:24.229Z,11.03
2018-12-03T04:53:51.873Z,10.87
2018-12-03T04:56:19.533Z,10.70
2018-12-03T04:58:47.336Z,11.50
2018-12-03T05:01:15.858Z,10.63
2018-12-03T05:03:43.566Z,13.53
2018-12-03T05:06:11.314Z,11.10
2018-12-03T05:08:38.969Z,10.73
2018-12-03T05:11:06.738Z,12.73
2018-12-03T05:13:34.504Z,13.20
2018-12-03T05:16:02.372Z,10.03
2018-12-03T05:18:30.169Z,10.50
2018-12-03T05:20:57.828Z,12.15
2018-12-03T05:23:25.497Z,11.87
2018-12-03T05:25:53.226Z,12.70
2018-12-03T05:28:21.019Z,13.03
2018-12-03T05:30:48.684Z,11.60
2018-12-03T05:33:16.335Z,11.97
2018-12-03T05:35:43.969Z,12.57
2018-12-03T05:38:11.637Z,12.23
2018-12-03T05:40:39.402Z,11.90
2018-12-03T05:43:07.112Z,14.00
2018-12-03T05:45:34.797Z,12.60
2018-12-03T05:48:02.454Z,14.87
2018-12-03T05:50:30.114Z,13.60
2018-12-03T05:52:57.871Z,12.47
2018-12-03T05:55:25.514Z,11.25
2018-12-03T05:57:53.130Z,13.53
2018-12-03T06:00:22.341Z,13.33
2018-12-03T06:02:49.998Z,12.87
2018-12-03T06:05:17.675Z,12.83
2018-12-03T06:07:45.319Z,12.73
2018-12-03T06:10:18.564Z,11.78
2018-12-03T06:12:46.230Z,14.13
2018-12-03T06:15:16.098Z,13.72
2018-12-03T06:17:44.298Z,12.50
2018-12-03T06:20:13.897Z,13.33
2018-12-03T06:22:41.689Z,13.93
2018-12-03T06:25:13.252Z,15.00
2018-12-03T06:27:40.909Z,14.73
2018-12-03T06:30:19.205Z,14.10
2018-12-03T06:32:46.987Z,14.63
2018-12-03T06:35:15.644Z,15.30
2018-12-03T06:37:43.385Z,12.67
2018-12-03T06:40:28.797Z,15.37
2018-12-03T06:42:56.565Z,14.50
2018-12-03T06:45:25.147Z,15.20
2018-12-03T06:48:08.322Z,15.10
2018-12-03T06:50:35.993Z,13.50
2018-12-03T06:53:03.678Z,13.50
2018-12-03T06:55:31.372Z,14.85
2018-12-03T06:57:59.088Z,15.77
2018-12-03T07:00:26.817Z,15.10
2018-12-03T07:02:54.603Z,15.67
2018-12-03T07:05:22.270Z,14.30
2018-12-03T07:07:53.358Z,16.50
2018-12-03T07:10:22.349Z,16.23
2018-12-03T07:12:52.452Z,15.40
2018-12-03T07:15:21.478Z,14.87
2018-12-03T07:17:51.575Z,14.80
2018-12-03T07:20:19.295Z,13.13
2018-12-03T07:22:46.928Z,14.80
2018-12-03T07:25:14.669Z,14.47
2018-12-03T07:27:42.348Z,14.45
2018-12-03T07:30:17.588Z,13.73
2018-12-03T07:32:47.269Z,15.73
2018-12-03T07:35:14.520Z,13.27
2018-12-03T07:37:42.558Z,14.83
2018-12-03T07:40:11.577Z,14.27
2018-12-03T07:42:40.326Z,14.90
2018-12-03T07:45:24.787Z,17.10
2018-12-03T07:47:52.431Z,13.83
2018-12-03T07:50:21.779Z,14.50
2018-12-03T07:52:49.475Z,14.83
2018-12-03T07:55:20.506Z,13.73
2018-12-03T07:57:57.114Z,13.83
2018-12-03T08:00:27.905Z,13.80
2018-12-03T08:02:55.611Z,13.83
2018-12-03T08:05:23.318Z,13.13
2018-12-03T08:07:50.925Z,12.63
2018-12-03T08:10:18.896Z,12.37
2018-12-03T08:12:47.979Z,11.63
2018-12-03T08:15:17.599Z,10.90
2018-12-03T08:17:52.690Z,12.07
2018-12-03T08:20:24.469Z,11.13
2018-12-03T08:22:55.819Z,10.67
2018-12-03T08:25:24.219Z,10.70
2018-12-03T08:27:52.957Z,10.60
2018-12-03T08:30:20.687Z,10.33
2018-12-03T08:32:48.464Z,12.77
2018-12-03T08:35:17.534Z,10.90
2018-12-03T08:37:45.407Z,12.23
2018-12-03T08:40:18.516Z,12.03
2018-12-03T08:42:51.150Z,10.70
2018-12-03T08:45:20.068Z,11.73
2018-12-03T08:47:49.250Z,11.20
2018-12-03T08:50:20.633Z,12.00
2018-12-03T08:52:48.356Z,12.30
2018-12-03T08:55:16.028Z,11.40
2018-12-03T08:57:43.722Z,11.83
2018-12-03T09:00:14.977Z,10.63
2018-12-03T09:03:26.339Z,10.23
2018-12-03T09:05:54.074Z,9.63
2018-12-03T09:08:21.829Z,9.57
2018-12-03T09:10:50.087Z,10.08
2018-12-03T09:13:20.752Z,8.67
2018-12-03T09:16:03.234Z,9.13
2018-12-03T09:18:33.786Z,9.03
2018-12-03T09:21:01.638Z,10.27
2018-12-03T09:23:29.396Z,9.13
2018-12-03T09:25:57.129Z,8.50
2018-12-03T09:28:24.866Z,9.75
2018-12-03T09:30:52.598Z,8.78
2018-12-03T09:33:20.219Z,8.43
2018-12-03T09:35:47.971Z,7.67
2018-12-03T09:38:15.640Z,7.90
2018-12-03T09:40:43.302Z,7.77
2018-12-03T09:43:11.008Z,6.95
2018-12-03T09:45:39.183Z,7.97
2018-12-03T09:48:06.809Z,7.60
2018-12-03T09:50:34.526Z,5.33
2018-12-03T09:53:02.237Z,7.20
2018-12-03T09:55:31.714Z,6.57
2018-12-03T09:58:12.639Z,2.50
2018-12-03T10:00:40.630Z,2.20
2018-12-03T10:03:17.367Z,1.00
2018-12-03T10:05:49.663Z,0.77
2018-12-03T10:08:21.993Z,0.60
2018-12-03T10:10:53.078Z,0.50
2018-12-03T10:13:20.699Z,0.67
2018-12-03T10:15:48.421Z,0.50
2018-12-03T10:18:16.131Z,0.60
2018-12-03T10:20:48.474Z,0.50
2018-12-03T10:23:16.314Z,0.50
2018-12-03T10:25:45.018Z,0.50
2018-12-03T10:28:12.646Z,0.70
2018-12-03T10:30:40.345Z,0.60
2018-12-03T10:33:08.068Z,0.50
2018-12-03T10:35:38.080Z,0.50
2018-12-03T10:38:15.305Z,0.60
2018-12-03T10:40:49.145Z,0.50
2018-12-03T10:43:16.874Z,0.50
2018-12-03T10:45:44.562Z,0.60
2018-12-03T10:48:12.201Z,0.50
2018-12-03T10:50:40.545Z,0.50
2018-12-03T10:53:08.325Z,0.40
2018-12-03T10:55:41.509Z,0.50
2018-12-03T10:58:12.675Z,0.50
2018-12-03T11:00:46.152Z,0.50
2018-12-03T11:03:18.469Z,0.60
2018-12-03T11:05:52.431Z,0.50
2018-12-03T11:08:21.642Z,0.50
2018-12-03T11:10:50.479Z,0.50
2018-12-03T11:13:18.155Z,0.40
2018-12-03T11:15:45.929Z,0.47
2018-12-03T11:18:13.579Z,0.60
2018-12-03T11:20:41.309Z,0.50
2018-12-03T11:23:09.471Z,0.60
2018-12-03T11:25:41.074Z,0.55
2018-12-03T11:28:11.869Z,0.50
2018-12-03T11:30:50.535Z,0.60
2018-12-03T11:33:22.028Z,0.50
2018-12-03T11:35:50.535Z,0.40
2018-12-03T11:38:33.869Z,0.60
2018-12-03T11:41:01.580Z,0.50
2018-12-03T11:43:30.322Z,0.80
2018-12-03T11:45:58.283Z,0.60
2018-12-03T11:48:25.960Z,0.83
2018-12-03T11:50:54.431Z,0.57
2018-12-03T11:53:22.078Z,0.57
2018-12-03T11:55:49.791Z,0.60
2018-12-03T11:58:17.468Z,0.50
2018-12-03T12:00:45.209Z,0.40
2018-12-03T12:03:12.881Z,0.60
2018-12-03T12:05:40.572Z,0.50
2018-12-03T12:08:08.234Z,0.50
2018-12-03T12:10:35.907Z,0.50
2018-12-03T12:13:03.673Z,0.50
2018-12-03T12:15:31.410Z,0.50
2018-12-03T12:17:59.146Z,0.60
2018-12-03T12:20:27.012Z,0.60
2018-12-03T12:22:54.703Z,0.60
2018-12-03T12:25:22.338Z,0.50
2018-12-03T12:27:53.994Z,0.50
2018-12-03T12:30:21.683Z,0.57
2018-12-03T12:32:49.623Z,0.40
2018-12-03T12:35:17.372Z,0.50
2018-12-03T12:37:56.639Z,0.50
2018-12-03T12:40:18.642Z,0.67
2018-12-03T12:42:46.342Z,0.60
2018-12-03T12:45:26.551Z,0.68
2018-12-03T12:47:54.287Z,0.50
2018-12-03T12:50:22.034Z,0.63
2018-12-03T12:52:50.564Z,0.62
2018-12-03T12:55:18.228Z,0.60
2018-12-03T12:57:45.852Z,0.53
2018-12-03T13:00:16.286Z,0.60
2018-12-03T13:02:47.250Z,0.57
2018-12-03T13:05:14.979Z,0.50
2018-12-03T13:07:42.647Z,0.53
2018-12-03T13:10:13.891Z,0.75
2018-12-03T13:12:41.814Z,0.70
2018-12-03T13:15:13.442Z,0.50
2018-12-03T13:17:44.242Z,0.60
2018-12-03T13:20:14.996Z,0.50
2018-12-03T13:22:42.784Z,0.60
2018-12-03T13:25:14.134Z,0.60
2018-12-03T13:27:41.832Z,0.90
2018-12-03T13:30:13.627Z,0.60
2018-12-03T13:32:41.324Z,0.60
2018-12-03T13:35:12.258Z,0.60
2018-12-03T13:37:39.965Z,0.60
2018-12-03T13:40:12.700Z,0.60
2018-12-03T13:42:42.001Z,0.40
2018-12-03T13:45:17.479Z,0.57
2018-12-03T13:47:45.216Z,0.90
2018-12-03T13:50:17.453Z,0.50
2018-12-03T13:52:45.455Z,0.60
2018-12-03T13:55:16.190Z,0.57
2018-12-03T13:57:43.860Z,0.63
2018-12-03T14:00:19.479Z,0.60
2018-12-03T14:03:09.025Z,0.50
2018-12-03T14:05:48.616Z,0.60
2018-12-03T14:12:44.194Z,0.50
2018-12-03T14:17:27.908Z,0.60
2018-12-03T14:19:58.745Z,0.50
2018-12-03T14:22:41.185Z,0.60
2018-12-03T14:25:09.534Z,1.00
2018-12-03T14:27:37.226Z,0.70
2018-12-03T14:30:08.473Z,0.60
2018-12-03T14:32:36.184Z,0.50
2018-12-03T14:35:08.434Z,0.60
2018-12-03T14:37:36.138Z,0.40
2018-12-03T14:40:05.857Z,0.60
2018-12-03T14:42:34.505Z,0.50
2018-12-03T14:45:03.329Z,0.50
2018-12-03T14:47:30.965Z,0.50
2018-12-03T14:49:58.653Z,0.40
2018-12-03T14:52:26.371Z,0.40
2018-12-03T14:54:54.044Z,0.50
2018-12-03T14:57:21.767Z,0.50
2018-12-03T14:59:49.516Z,0.57
2018-12-03T15:02:17.213Z,0.40
2018-12-03T15:04:45.243Z,0.50
2018-12-03T15:07:13.513Z,0.50
2018-12-03T15:09:41.184Z,0.70
2018-12-03T15:12:08.949Z,0.80
2018-12-03T15:14:36.661Z,0.77
2018-12-03T15:17:04.357Z,0.83
2018-12-03T15:19:32.764Z,0.60
2018-12-03T15:22:00.480Z,0.60
2018-12-03T15:24:28.979Z,0.67
2018-12-03T15:26:56.770Z,0.63
2018-12-03T15:29:24.470Z,0.70
2018-12-03T15:31:53.238Z,0.70
2018-12-03T15:34:21.699Z,0.70
2018-12-03T15:36:49.555Z,0.80
2018-12-03T15:39:17.201Z,0.80
2018-12-03T15:41:44.896Z,1.15
2018-12-03T15:44:12.947Z,1.20
2018-12-03T15:46:42.187Z,1.12
2018-12-03T15:49:11.107Z,1.07
2018-12-03T15:51:38.777Z,1.23
2018-12-03T15:54:07.379Z,1.00
2018-12-03T15:56:35.182Z,1.37
2018-12-03T15:59:02.909Z,1.40
2018-12-03T16:01:30.798Z,1.97
2018-12-03T16:03:58.460Z,2.40
2018-12-03T16:06:26.844Z,1.15
2018-12-03T16:08:54.661Z,1.20
2018-12-03T16:11:23.267Z,1.37
2018-12-03T16:13:52.500Z,1.90
2018-12-03T16:16:21.408Z,2.70
2018-12-03T16:18:50.090Z,3.80
2018-12-03T16:21:18.760Z,3.63
2018-12-03T16:23:46.421Z,3.30
2018-12-03T16:26:14.590Z,2.70
2018-12-03T16:28:42.361Z,1.70
2018-12-03T16:31:11.013Z,2.07
2018-12-03T16:33:39.389Z,2.40
2018-12-03T16:36:07.123Z,1.80
2018-12-03T16:38:35.685Z,1.53
2018-12-03T16:41:03.406Z,1.60
2018-12-03T16:43:31.107Z,1.73
2018-12-03T16:45:59.495Z,1.17
2018-12-03T16:48:28.232Z,1.30
2018-12-03T16:50:55.988Z,1.20
2018-12-03T16:53:23.621Z,1.20
2018-12-03T16:55:51.351Z,1.00
2018-12-03T16:58:20.136Z,1.20
2018-12-03T17:00:48.230Z,1.87
2018-12-03T17:03:17.071Z,2.63
2018-12-03T17:05:45.693Z,2.27
2018-12-03T17:08:14.141Z,1.60
2018-12-03T17:10:42.358Z,2.10
2018-12-03T17:13:10.173Z,1.70
2018-12-03T17:15:38.422Z,1.63
2018-12-03T17:18:06.959Z,1.10
2018-12-03T17:21:01.807Z,1.73
2018-12-03T17:23:41.686Z,2.20
2018-12-03T17:26:10.178Z,1.40
2018-12-03T17:28:38.914Z,1.27
2018-12-03T17:31:06.567Z,1.30
2018-12-03T17:33:34.364Z,1.63
2018-12-03T17:36:02.579Z,1.20
2018-12-03T17:38:31.206Z,1.40
2018-12-03T17:41:00.664Z,1.50
2018-12-03T17:43:28.481Z,1.50
2018-12-03T17:45:56.428Z,1.70
2018-12-03T17:48:24.512Z,1.43
2018-12-03T17:51:23.391Z,1.60
2018-12-03T17:53:50.160Z,1.40
2018-12-03T17:56:17.417Z,1.55
2018-12-03T17:58:44.972Z,1.60
2018-12-03T18:01:11.197Z,1.67
2018-12-03T18:03:37.323Z,1.23
2018-12-03T18:06:03.561Z,2.70
2018-12-03T18:08:29.955Z,2.40
2018-12-03T18:10:56.942Z,1.50
2018-12-03T18:13:23.097Z,1.32
2018-12-03T18:15:49.331Z,1.77
2018-12-03T18:18:15.810Z,1.60
2018-12-03T18:20:42.493Z,1.67
2018-12-03T18:23:08.737Z,1.00
2018-12-03T18:25:35.867Z,1.10
2018-12-03T18:28:03.315Z,1.92
2018-12-03T18:30:29.558Z,1.73
2018-12-03T18:32:56.679Z,1.10
2018-12-03T18:35:23.484Z,1.35
2018-12-03T18:37:51.175Z,1.40
2018-12-03T18:40:17.549Z,1.50
2018-12-03T18:42:43.809Z,1.20
2018-12-03T18:45:10.101Z,1.10
2018-12-03T18:47:37.421Z,0.90
2018-12-03T18:50:08.564Z,1.37
2018-12-03T18:52:34.819Z,1.00
2018-12-03T18:55:01.063Z,1.10
2018-12-03T18:57:27.298Z,0.90
2018-12-03T18:59:53.510Z,1.10
2018-12-03T19:02:19.825Z,0.80
2018-12-03T19:04:46.073Z,0.80
2018-12-03T19:07:12.299Z,0.80
2018-12-03T19:09:38.704Z,1.10
2018-12-03T19:12:05.150Z,0.90
2018-12-03T19:14:31.329Z,1.00
2018-12-03T19:16:57.762Z,0.70
2018-12-03T19:19:24.110Z,2.50
2018-12-03T19:21:50.417Z,0.60
2018-12-03T19:24:16.586Z,0.80
2018-12-03T19:26:42.803Z,1.00
2018-12-03T19:29:09.059Z,1.00
2018-12-03T19:31:36.446Z,0.70
2018-12-03T19:34:02.981Z,0.67
2018-12-03T19:36:29.352Z,0.93
2018-12-03T19:38:55.528Z,0.80
2018-12-03T19:41:21.832Z,1.50
2018-12-03T19:43:48.117Z,0.80
2018-12-03T19:46:14.417Z,1.50
2018-12-03T19:48:41.348Z,1.95
2018-12-03T19:51:07.551Z,2.75
2018-12-03T19:53:33.788Z,1.67
2018-12-03T19:56:00.349Z,1.70
2018-12-03T19:58:26.791Z,1.60
2018-12-03T20:00:53.201Z,0.97
2018-12-03T20:03:19.361Z,0.90
2018-12-03T20:05:45.513Z,1.50
2018-12-03T20:08:11.734Z,1.40
2018-12-03T20:10:38.443Z,1.10
2018-12-03T20:13:04.846Z,1.00
2018-12-03T20:15:30.968Z,0.70
2018-12-03T20:17:57.274Z,1.00
2018-12-03T20:20:23.939Z,0.90
2018-12-03T20:22:51.310Z,0.90
2018-12-03T20:25:17.794Z,1.27
2018-12-03T20:27:44.841Z,1.17
2018-12-03T20:30:17.454Z,1.20
2018-12-03T20:32:43.742Z,2.27
2018-12-03T20:35:09.926Z,1.43
2018-12-03T20:37:38.244Z,1.60
2018-12-03T20:40:13.250Z,1.17
2018-12-03T20:42:39.609Z,1.43
2018-12-03T20:45:14.995Z,1.32
2018-12-03T20:47:49.267Z,0.90
2018-12-03T20:50:18.128Z,1.20
2018-12-03T20:52:47.439Z,1.10
2018-12-03T20:55:15.661Z,1.47
2018-12-03T20:57:41.937Z,0.90
2018-12-03T21:00:09.722Z,1.23
2018-12-03T21:02:36.132Z,1.00
2018-12-03T21:05:03.945Z,0.93
2018-12-03T21:07:30.233Z,1.57
2018-12-03T21:09:56.477Z,1.23
2018-12-03T21:12:22.743Z,2.10
2018-12-03T21:14:48.884Z,1.10
2018-12-03T21:17:15.313Z,1.00
2018-12-03T21:19:41.873Z,1.13
2018-12-03T21:22:07.970Z,0.90
2018-12-03T21:24:34.181Z,3.50
2018-12-03T21:27:00.258Z,1.57
2018-12-03T21:29:26.506Z,2.10
2018-12-03T21:31:53.251Z,3.83
2018-12-03T21:34:19.396Z,7.70
2018-12-03T21:36:45.689Z,3.23
2018-12-03T21:39:11.914Z,3.70
2018-12-03T21:41:38.153Z,1.60
2018-12-03T21:44:04.562Z,1.40
2018-12-03T21:46:30.832Z,1.10
2018-12-03T21:48:57.428Z,0.90
2018-12-03T21:51:23.694Z,0.80
2018-12-03T21:53:54.517Z,0.90
2018-12-03T21:56:21.476Z,0.90
2018-12-03T21:58:47.774Z,0.90
2018-12-03T22:01:14.042Z,0.93
2018-12-03T22:03:40.138Z,1.03
2018-12-03T22:06:06.352Z,1.37
2018-12-03T22:08:32.698Z,1.70
2018-12-03T22:10:59.070Z,4.87
2018-12-03T22:13:25.387Z,7.70
2018-12-03T22:15:51.503Z,8.73
2018-12-03T22:18:18.542Z,8.83
2018-12-03T22:20:44.769Z,9.20
2018-12-03T22:23:11.016Z,9.70
2018-12-03T22:25:37.456Z,12.53
2018-12-03T22:28:03.713Z,9.35
2018-12-03T22:30:29.918Z,12.17
2018-12-03T22:32:56.235Z,11.17
2018-12-03T22:38:04.910Z,10.77
2018-12-03T22:40:31.107Z,12.85
2018-12-03T22:42:57.215Z,11.40
2018-12-03T22:45:23.441Z,10.10
2018-12-03T22:47:49.661Z,12.50
2018-12-03T22:50:15.917Z,12.70
2018-12-03T22:52:42.140Z,10.03
2018-12-03T22:55:15.495Z,10.50
2018-12-03T22:57:41.693Z,10.80
2018-12-03T23:00:14.097Z,13.07
2018-12-03T23:02:40.294Z,9.90
2018-12-03T23:05:06.773Z,9.33
2018-12-03T23:07:33.113Z,9.70
2018-12-03T23:09:59.982Z,10.17
2018-12-03T23:12:26.314Z,10.20
2018-12-03T23:14:52.460Z,8.18
2018-12-03T23:17:18.926Z,4.90
2018-12-03T23:19:45.159Z,1.37
2018-12-03T23:22:11.527Z,0.70
2018-12-03T23:24:38.501Z,0.80
2018-12-03T23:27:04.834Z,0.80
2018-12-03T23:29:30.938Z,0.80
2018-12-03T23:31:57.127Z,0.90
2018-12-03T23:34:23.274Z,0.87
2018-12-03T23:36:49.660Z,0.70
2018-12-03T23:39:15.842Z,1.00
2018-12-03T23:41:41.944Z,0.70
2018-12-03T23:44:08.024Z,0.68
2018-12-03T23:46:34.306Z,0.70
2018-12-03T23:49:00.375Z,0.50
2018-12-03T23:51:26.506Z,0.60
2018-12-03T23:53:53.720Z,0.70
2018-12-03T23:56:19.822Z,0.50
2018-12-03T23:58:45.909Z,0.53
